sensor_id;sensor_type;location;lat;lon;timestamp;pressure;altitude;pressure_sealevel;temperature;humidity
54042;BME280;41156;51.508;5.406;2023-10-19T00:00:37;99152.22;;;11.75;100.00
54042;BME280;41156;51.508;5.406;2023-10-19T00:03:41;99139.22;;;11.77;100.00
54042;BME280;41156;51.508;5.406;2023-10-19T00:06:41;99138.69;;;11.80;100.00
54042;BME280;41156;51.508;5.406;2023-10-19T00:09:44;99157.94;;;11.83;100.00
54042;BME280;41156;51.508;5.406;2023-10-19T00:12:47;99150.34;;;11.85;100.00
54042;BME280;41156;51.508;5.406;2023-10-19T00:15:57;99149.03;;;11.88;100.00
54042;BME280;41156;51.508;5.406;2023-10-19T00:18:58;99152.03;;;11.92;100.00
54042;BME280;41156;51.508;5.406;2023-10-19T00:21:59;99152.06;;;11.97;100.00
54042;BME280;41156;51.508;5.406;2023-10-19T00:25:08;99146.13;;;12.00;100.00
54042;BME280;41156;51.508;5.406;2023-10-19T00:28:13;99140.97;;;12.03;100.00
54042;BME280;41156;51.508;5.406;2023-10-19T00:31:16;99136.94;;;12.06;100.00
54042;BME280;41156;51.508;5.406;2023-10-19T00:34:16;99136.41;;;12.09;100.00
54042;BME280;41156;51.508;5.406;2023-10-19T00:37:16;99136.94;;;12.11;100.00
54042;BME280;41156;51.508;5.406;2023-10-19T00:40:19;99141.25;;;12.12;100.00
54042;BME280;41156;51.508;5.406;2023-10-19T00:43:34;99132.06;;;12.13;100.00
54042;BME280;41156;51.508;5.406;2023-10-19T00:46:56;99144.53;;;12.14;100.00
54042;BME280;41156;51.508;5.406;2023-10-19T00:50:03;99139.94;;;12.20;100.00
54042;BME280;41156;51.508;5.406;2023-10-19T00:53:05;99139.16;;;12.25;100.00
54042;BME280;41156;51.508;5.406;2023-10-19T00:56:09;99131.03;;;12.30;100.00
54042;BME280;41156;51.508;5.406;2023-10-19T00:59:09;99134.28;;;12.37;100.00
54042;BME280;41156;51.508;5.406;2023-10-19T01:02:20;99125.09;;;12.43;100.00
54042;BME280;41156;51.508;5.406;2023-10-19T01:05:21;99130.78;;;12.52;100.00
54042;BME280;41156;51.508;5.406;2023-10-19T01:08:21;99127.28;;;12.56;100.00
54042;BME280;41156;51.508;5.406;2023-10-19T01:11:30;99129.19;;;12.66;100.00
54042;BME280;41156;51.508;5.406;2023-10-19T01:14:31;99123.75;;;12.76;100.00
54042;BME280;41156;51.508;5.406;2023-10-19T01:17:33;99129.44;;;12.85;100.00
54042;BME280;41156;51.508;5.406;2023-10-19T01:20:38;99131.59;;;12.88;100.00
54042;BME280;41156;51.508;5.406;2023-10-19T01:23:51;99126.72;;;12.90;100.00
54042;BME280;41156;51.508;5.406;2023-10-19T01:26:52;99121.28;;;12.95;100.00
54042;BME280;41156;51.508;5.406;2023-10-19T01:29:53;99119.13;;;13.03;100.00
54042;BME280;41156;51.508;5.406;2023-10-19T01:32:54;99119.94;;;13.08;100.00
54042;BME280;41156;51.508;5.406;2023-10-19T01:35:54;99119.13;;;13.13;100.00
54042;BME280;41156;51.508;5.406;2023-10-19T01:39:11;99117.47;;;13.17;100.00
54042;BME280;41156;51.508;5.406;2023-10-19T01:42:11;99118.56;;;13.21;100.00
54042;BME280;41156;51.508;5.406;2023-10-19T01:45:12;99109.34;;;13.22;100.00
54042;BME280;41156;51.508;5.406;2023-10-19T01:48:12;99109.88;;;13.24;100.00
54042;BME280;41156;51.508;5.406;2023-10-19T01:51:16;99118.00;;;13.29;100.00
54042;BME280;41156;51.508;5.406;2023-10-19T01:54:16;99112.59;;;13.35;100.00
54042;BME280;41156;51.508;5.406;2023-10-19T01:57:18;99111.78;;;13.39;100.00
54042;BME280;41156;51.508;5.406;2023-10-19T02:00:19;99118.53;;;13.42;100.00
54042;BME280;41156;51.508;5.406;2023-10-19T02:03:23;99113.66;;;13.49;100.00
54042;BME280;41156;51.508;5.406;2023-10-19T02:06:29;99121.19;;;13.52;100.00
54042;BME280;41156;51.508;5.406;2023-10-19T02:09:36;99126.91;;;13.61;100.00
54042;BME280;41156;51.508;5.406;2023-10-19T02:12:39;99116.28;;;13.64;100.00
54042;BME280;41156;51.508;5.406;2023-10-19T02:15:45;99110.84;;;13.69;100.00
54042;BME280;41156;51.508;5.406;2023-10-19T02:18:46;99109.19;;;13.74;100.00
54042;BME280;41156;51.508;5.406;2023-10-19T02:21:51;99098.06;;;13.75;100.00
54042;BME280;41156;51.508;5.406;2023-10-19T02:24:52;99104.31;;;13.76;100.00
54042;BME280;41156;51.508;5.406;2023-10-19T02:27:52;99104.03;;;13.77;100.00
54042;BME280;41156;51.508;5.406;2023-10-19T02:30:53;99112.44;;;13.81;100.00
54042;BME280;41156;51.508;5.406;2023-10-19T02:33:54;99105.63;;;13.78;100.00
54042;BME280;41156;51.508;5.406;2023-10-19T02:37:00;99107.56;;;13.78;100.00
54042;BME280;41156;51.508;5.406;2023-10-19T02:40:01;99102.38;;;13.81;100.00
54042;BME280;41156;51.508;5.406;2023-10-19T02:43:03;99104.25;;;13.86;100.00
54042;BME280;41156;51.508;5.406;2023-10-19T02:46:04;99105.31;;;13.90;100.00
54042;BME280;41156;51.508;5.406;2023-10-19T02:49:06;99102.03;;;13.93;100.00
54042;BME280;41156;51.508;5.406;2023-10-19T02:52:13;99099.31;;;13.93;100.00
54042;BME280;41156;51.508;5.406;2023-10-19T02:55:16;99102.84;;;13.94;100.00
54042;BME280;41156;51.508;5.406;2023-10-19T02:58:16;99098.53;;;13.93;100.00
54042;BME280;41156;51.508;5.406;2023-10-19T03:01:18;99096.06;;;13.96;100.00
54042;BME280;41156;51.508;5.406;2023-10-19T03:04:22;99095.50;;;13.99;100.00
54042;BME280;41156;51.508;5.406;2023-10-19T03:07:22;99096.03;;;14.01;100.00
54042;BME280;41156;51.508;5.406;2023-10-19T03:10:23;99094.94;;;14.02;100.00
54042;BME280;41156;51.508;5.406;2023-10-19T03:13:43;99091.13;;;14.03;100.00
54042;BME280;41156;51.508;5.406;2023-10-19T03:16:44;99091.13;;;14.03;100.00
54042;BME280;41156;51.508;5.406;2023-10-19T03:19:45;99091.94;;;14.04;100.00
54042;BME280;41156;51.508;5.406;2023-10-19T03:22:46;99091.13;;;14.03;100.00
54042;BME280;41156;51.508;5.406;2023-10-19T03:25:56;99080.81;;;14.00;100.00
54042;BME280;41156;51.508;5.406;2023-10-19T03:29:16;99081.38;;;14.02;100.00
54042;BME280;41156;51.508;5.406;2023-10-19T03:32:23;99076.50;;;13.99;100.00
54042;BME280;41156;51.508;5.406;2023-10-19T03:35:26;99074.34;;;13.96;100.00
54042;BME280;41156;51.508;5.406;2023-10-19T03:38:27;99076.53;;;13.94;100.00
54042;BME280;41156;51.508;5.406;2023-10-19T03:41:27;99071.09;;;13.94;100.00
54042;BME280;41156;51.508;5.406;2023-10-19T03:44:27;99068.91;;;13.96;100.00
54042;BME280;41156;51.508;5.406;2023-10-19T03:47:39;99075.97;;;13.97;100.00
54042;BME280;41156;51.508;5.406;2023-10-19T03:50:43;99081.41;;;13.97;100.00
54042;BME280;41156;51.508;5.406;2023-10-19T03:53:43;99071.09;;;13.94;100.00
54042;BME280;41156;51.508;5.406;2023-10-19T03:57:04;99076.25;;;13.96;100.00
54042;BME280;41156;51.508;5.406;2023-10-19T04:00:07;99070.53;;;13.92;100.00
54042;BME280;41156;51.508;5.406;2023-10-19T04:03:16;99068.41;;;13.89;100.00
54042;BME280;41156;51.508;5.406;2023-10-19T04:06:17;99072.22;;;13.83;100.00
54042;BME280;41156;51.508;5.406;2023-10-19T04:09:20;99063.00;;;13.79;100.00
54042;BME280;41156;51.508;5.406;2023-10-19T04:12:20;99060.84;;;13.81;100.00
54042;BME280;41156;51.508;5.406;2023-10-19T04:15:22;99058.16;;;13.76;100.00
54042;BME280;41156;51.508;5.406;2023-10-19T04:18:22;99057.59;;;13.74;100.00
54042;BME280;41156;51.508;5.406;2023-10-19T04:21:25;99062.50;;;13.72;100.00
54042;BME280;41156;51.508;5.406;2023-10-19T04:24:26;99062.00;;;13.69;100.00
54042;BME280;41156;51.508;5.406;2023-10-19T04:27:26;99059.28;;;13.69;100.00
54042;BME280;41156;51.508;5.406;2023-10-19T04:30:26;99058.75;;;13.67;100.00
54042;BME280;41156;51.508;5.406;2023-10-19T04:33:27;99057.38;;;13.65;100.00
54042;BME280;41156;51.508;5.406;2023-10-19T04:36:28;99062.03;;;13.59;100.00
54042;BME280;41156;51.508;5.406;2023-10-19T04:39:28;99059.06;;;13.56;100.00
54042;BME280;41156;51.508;5.406;2023-10-19T04:42:30;99067.50;;;13.49;100.00
54042;BME280;41156;51.508;5.406;2023-10-19T04:45:32;99069.91;;;13.50;100.00
54042;BME280;41156;51.508;5.406;2023-10-19T04:48:33;99066.94;;;13.52;100.00
54042;BME280;41156;51.508;5.406;2023-10-19T04:51:34;99068.59;;;13.48;100.00
54042;BME280;41156;51.508;5.406;2023-10-19T04:54:38;99074.53;;;13.50;100.00
54042;BME280;41156;51.508;5.406;2023-10-19T04:57:39;99070.47;;;13.53;100.00
54042;BME280;41156;51.508;5.406;2023-10-19T05:00:39;99075.06;;;13.57;100.00
54042;BME280;41156;51.508;5.406;2023-10-19T05:03:39;99082.38;;;13.57;100.00
54042;BME280;41156;51.508;5.406;2023-10-19T05:06:40;99076.13;;;13.61;100.00
54042;BME280;41156;51.508;5.406;2023-10-19T05:09:40;99076.13;;;13.61;100.00
54042;BME280;41156;51.508;5.406;2023-10-19T05:12:40;99077.78;;;13.62;100.00
54042;BME280;41156;51.508;5.406;2023-10-19T05:15:41;99072.34;;;13.62;100.00
54042;BME280;41156;51.508;5.406;2023-10-19T05:18:42;99085.34;;;13.60;100.00
54042;BME280;41156;51.508;5.406;2023-10-19T05:21:43;99077.22;;;13.60;100.00
54042;BME280;41156;51.508;5.406;2023-10-19T05:24:43;99084.56;;;13.55;100.00
54042;BME280;41156;51.508;5.406;2023-10-19T05:27:44;99079.94;;;13.55;100.00
54042;BME280;41156;51.508;5.406;2023-10-19T05:30:45;99073.44;;;13.56;100.00
54042;BME280;41156;51.508;5.406;2023-10-19T05:33:46;99076.16;;;13.56;100.00
54042;BME280;41156;51.508;5.406;2023-10-19T05:36:49;99079.41;;;13.58;100.00
54042;BME280;41156;51.508;5.406;2023-10-19T05:39:49;99090.25;;;13.58;100.00
54042;BME280;41156;51.508;5.406;2023-10-19T05:42:51;99094.03;;;13.57;100.00
54042;BME280;41156;51.508;5.406;2023-10-19T05:45:52;99091.91;;;13.59;100.00
54042;BME280;41156;51.508;5.406;2023-10-19T05:48:52;99098.94;;;13.60;100.00
54042;BME280;41156;51.508;5.406;2023-10-19T05:51:56;99096.78;;;13.62;100.00
54042;BME280;41156;51.508;5.406;2023-10-19T05:54:56;99092.94;;;13.63;100.00
54042;BME280;41156;51.508;5.406;2023-10-19T05:57:57;99100.56;;;13.61;100.00
54042;BME280;41156;51.508;5.406;2023-10-19T06:00:58;99098.66;;;13.62;100.00
54042;BME280;41156;51.508;5.406;2023-10-19T06:03:59;99106.00;;;13.61;100.00
54042;BME280;41156;51.508;5.406;2023-10-19T06:06:59;99095.69;;;13.58;100.00
54042;BME280;41156;51.508;5.406;2023-10-19T06:09:59;99092.69;;;13.60;100.00
54042;BME280;41156;51.508;5.406;2023-10-19T06:13:04;99108.97;;;13.60;100.00
54042;BME280;41156;51.508;5.406;2023-10-19T06:16:04;99106.78;;;13.62;100.00
54042;BME280;41156;51.508;5.406;2023-10-19T06:19:04;99113.59;;;13.64;100.00
54042;BME280;41156;51.508;5.406;2023-10-19T06:22:05;99113.84;;;13.68;100.00
54042;BME280;41156;51.508;5.406;2023-10-19T06:25:06;99101.91;;;13.69;100.00
54042;BME280;41156;51.508;5.406;2023-10-19T06:28:06;99107.06;;;13.71;100.00
54042;BME280;41156;51.508;5.406;2023-10-19T06:31:07;99104.59;;;13.74;100.00
54042;BME280;41156;51.508;5.406;2023-10-19T06:34:08;99113.00;;;13.73;100.00
54042;BME280;41156;51.508;5.406;2023-10-19T06:37:10;99120.88;;;13.74;100.00
54042;BME280;41156;51.508;5.406;2023-10-19T06:40:12;99120.31;;;13.72;100.00
54042;BME280;41156;51.508;5.406;2023-10-19T06:43:15;99129.56;;;13.71;100.00
54042;BME280;41156;51.508;5.406;2023-10-19T06:46:15;99126.06;;;13.71;100.00
54042;BME280;41156;51.508;5.406;2023-10-19T06:49:15;99113.28;;;13.71;100.00
54042;BME280;41156;51.508;5.406;2023-10-19T06:52:15;99119.25;;;13.73;100.00
54042;BME280;41156;51.508;5.406;2023-10-19T06:55:17;99129.81;;;13.75;100.00
54042;BME280;41156;51.508;5.406;2023-10-19T06:58:22;99121.94;;;13.78;100.00
54042;BME280;41156;51.508;5.406;2023-10-19T07:01:26;99124.38;;;13.80;100.00
54042;BME280;41156;51.508;5.406;2023-10-19T07:04:29;99130.03;;;13.83;100.00
54042;BME280;41156;51.508;5.406;2023-10-19T07:07:30;99135.72;;;13.87;100.00
54042;BME280;41156;51.508;5.406;2023-10-19T07:10:30;99129.75;;;13.90;100.00
54042;BME280;41156;51.508;5.406;2023-10-19T07:13:30;99131.63;;;13.95;100.00
54042;BME280;41156;51.508;5.406;2023-10-19T07:16:33;99132.41;;;14.00;100.00
54042;BME280;41156;51.508;5.406;2023-10-19T07:19:33;99128.63;;;14.01;100.00
54042;BME280;41156;51.508;5.406;2023-10-19T07:22:35;99137.28;;;14.03;100.00
54042;BME280;41156;51.508;5.406;2023-10-19T07:25:38;99136.19;;;14.04;100.00
54042;BME280;41156;51.508;5.406;2023-10-19T07:28:45;99136.72;;;14.06;100.00
54042;BME280;41156;51.508;5.406;2023-10-19T07:31:46;99127.78;;;14.06;100.00
54042;BME280;41156;51.508;5.406;2023-10-19T07:34:47;99125.31;;;14.10;100.00
54042;BME280;41156;51.508;5.406;2023-10-19T07:37:49;99123.66;;;14.14;100.00
54042;BME280;41156;51.508;5.406;2023-10-19T07:40:52;99123.09;;;14.17;100.00
54042;BME280;41156;51.508;5.406;2023-10-19T07:44:04;99130.69;;;14.20;100.00
54042;BME280;41156;51.508;5.406;2023-10-19T07:47:08;99121.69;;;14.24;100.00
54042;BME280;41156;51.508;5.406;2023-10-19T07:50:10;99122.22;;;14.27;100.00
54042;BME280;41156;51.508;5.406;2023-10-19T07:53:17;99125.19;;;14.30;100.00
54042;BME280;41156;51.508;5.406;2023-10-19T07:56:17;99125.16;;;14.35;100.00
54042;BME280;41156;51.508;5.406;2023-10-19T07:59:19;99126.22;;;14.39;100.00
54042;BME280;41156;51.508;5.406;2023-10-19T08:02:19;99122.66;;;14.44;100.00
54042;BME280;41156;51.508;5.406;2023-10-19T08:05:19;99115.31;;;14.44;100.00
54042;BME280;41156;51.508;5.406;2023-10-19T08:08:20;99107.41;;;14.48;100.00
54042;BME280;41156;51.508;5.406;2023-10-19T08:11:20;99108.75;;;14.51;100.00
54042;BME280;41156;51.508;5.406;2023-10-19T08:14:25;99106.56;;;14.53;100.00
54042;BME280;41156;51.508;5.406;2023-10-19T08:17:25;99105.72;;;14.57;100.00
54042;BME280;41156;51.508;5.406;2023-10-19T08:20:26;99100.53;;;14.61;100.00
54042;BME280;41156;51.508;5.406;2023-10-19T08:23:32;99093.97;;;14.67;100.00
54042;BME280;41156;51.508;5.406;2023-10-19T08:26:32;99103.13;;;14.76;100.00
54042;BME280;41156;51.508;5.406;2023-10-19T08:29:33;99107.16;;;14.84;100.00
54042;BME280;41156;51.508;5.406;2023-10-19T08:32:35;99100.84;;;14.89;100.00
54042;BME280;41156;51.508;5.406;2023-10-19T08:35:35;99101.63;;;14.94;100.00
54042;BME280;41156;51.508;5.406;2023-10-19T08:38:37;99102.94;;;14.97;100.00
54042;BME280;41156;51.508;5.406;2023-10-19T08:41:39;99102.09;;;15.02;100.00
54042;BME280;41156;51.508;5.406;2023-10-19T08:44:39;99095.00;;;15.06;100.00
54042;BME280;41156;51.508;5.406;2023-10-19T08:47:48;99088.25;;;15.27;100.00
54042;BME280;41156;51.508;5.406;2023-10-19T08:50:53;99096.63;;;15.55;100.00
54042;BME280;41156;51.508;5.406;2023-10-19T08:53:55;99089.78;;;15.82;100.00
54042;BME280;41156;51.508;5.406;2023-10-19T08:56:56;99096.56;;;16.03;100.00
54042;BME280;41156;51.508;5.406;2023-10-19T08:59:59;99103.88;;;16.27;100.00
54042;BME280;41156;51.508;5.406;2023-10-19T09:03:01;99096.28;;;16.43;100.00
54042;BME280;41156;51.508;5.406;2023-10-19T09:06:05;99086.25;;;16.57;100.00
54042;BME280;41156;51.508;5.406;2023-10-19T09:09:05;99085.59;;;16.79;100.00
54042;BME280;41156;51.508;5.406;2023-10-19T09:12:09;99077.06;;;17.00;100.00
54042;BME280;41156;51.508;5.406;2023-10-19T09:15:22;99074.78;;;17.21;100.00
54042;BME280;41156;51.508;5.406;2023-10-19T09:18:26;99065.50;;;17.22;100.00
54042;BME280;41156;51.508;5.406;2023-10-19T09:21:27;99061.94;;;17.08;100.00
54042;BME280;41156;51.508;5.406;2023-10-19T09:24:28;99057.69;;;17.01;100.00
54042;BME280;41156;51.508;5.406;2023-10-19T09:27:28;99062.72;;;16.94;100.00
54042;BME280;41156;51.508;5.406;2023-10-19T09:30:29;99057.78;;;16.96;100.00
54042;BME280;41156;51.508;5.406;2023-10-19T09:33:32;99060.75;;;17.14;100.00
54042;BME280;41156;51.508;5.406;2023-10-19T09:36:34;99058.91;;;17.23;100.00
54042;BME280;41156;51.508;5.406;2023-10-19T09:39:34;99061.13;;;17.21;100.00
54042;BME280;41156;51.508;5.406;2023-10-19T09:42:35;99071.34;;;17.29;100.00
54042;BME280;41156;51.508;5.406;2023-10-19T09:45:41;99064.16;;;17.33;100.00
54042;BME280;41156;51.508;5.406;2023-10-19T09:48:43;99060.34;;;17.34;100.00
54042;BME280;41156;51.508;5.406;2023-10-19T09:51:46;99055.78;;;17.30;100.00
54042;BME280;41156;51.508;5.406;2023-10-19T09:54:59;99060.03;;;17.22;100.00
54042;BME280;41156;51.508;5.406;2023-10-19T09:58:15;99054.16;;;17.15;100.00
54042;BME280;41156;51.508;5.406;2023-10-19T10:01:16;99044.38;;;17.14;100.00
54042;BME280;41156;51.508;5.406;2023-10-19T10:04:32;99040.31;;;17.11;100.00
54042;BME280;41156;51.508;5.406;2023-10-19T10:07:32;99035.34;;;17.13;100.00
54042;BME280;41156;51.508;5.406;2023-10-19T10:10:33;99042.63;;;17.18;100.00
54042;BME280;41156;51.508;5.406;2023-10-19T10:13:41;99045.25;;;17.23;100.00
54042;BME280;41156;51.508;5.406;2023-10-19T10:16:44;99050.72;;;17.23;100.00
54042;BME280;41156;51.508;5.406;2023-10-19T10:19:45;99045.75;;;17.25;100.00
54042;BME280;41156;51.508;5.406;2023-10-19T10:26:25;99061.44;;;17.33;100.00
54042;BME280;41156;51.508;5.406;2023-10-19T10:29:26;99061.84;;;17.41;100.00
54042;BME280;41156;51.508;5.406;2023-10-19T10:32:49;99058.00;;;17.42;100.00
54042;BME280;41156;51.508;5.406;2023-10-19T10:39:43;99047.28;;;17.45;100.00
54042;BME280;41156;51.508;5.406;2023-10-19T10:43:07;99050.84;;;17.46;100.00
54042;BME280;41156;51.508;5.406;2023-10-19T10:46:08;99062.44;;;17.51;100.00
54042;BME280;41156;51.508;5.406;2023-10-19T10:49:08;99063.47;;;17.55;100.00
54042;BME280;41156;51.508;5.406;2023-10-19T10:52:09;99063.97;;;17.57;100.00
54042;BME280;41156;51.508;5.406;2023-10-19T10:55:10;99053.34;;;17.56;100.00
54042;BME280;41156;51.508;5.406;2023-10-19T10:58:18;99061.03;;;17.54;100.00
54042;BME280;41156;51.508;5.406;2023-10-19T11:01:29;99060.63;;;17.47;100.00
54042;BME280;41156;51.508;5.406;2023-10-19T11:04:30;99045.88;;;17.48;100.00
54042;BME280;41156;51.508;5.406;2023-10-19T11:07:30;99046.16;;;17.46;100.00
54042;BME280;41156;51.508;5.406;2023-10-19T11:10:31;99037.97;;;17.46;100.00
54042;BME280;41156;51.508;5.406;2023-10-19T11:13:31;99037.97;;;17.46;100.00
54042;BME280;41156;51.508;5.406;2023-10-19T11:16:35;99026.75;;;17.48;100.00
54042;BME280;41156;51.508;5.406;2023-10-19T11:19:39;99021.78;;;17.50;100.00
54042;BME280;41156;51.508;5.406;2023-10-19T11:22:50;99015.59;;;17.58;100.00
54042;BME280;41156;51.508;5.406;2023-10-19T11:25:57;99015.69;;;17.67;100.00
54042;BME280;41156;51.508;5.406;2023-10-19T11:31:59;99018.22;;;17.77;100.00
54042;BME280;41156;51.508;5.406;2023-10-19T11:35:00;99018.00;;;17.73;100.00
54042;BME280;41156;51.508;5.406;2023-10-19T11:38:01;98998.38;;;17.71;100.00
54042;BME280;41156;51.508;5.406;2023-10-19T11:41:04;99001.13;;;17.71;100.00
54042;BME280;41156;51.508;5.406;2023-10-19T11:44:04;98994.66;;;17.67;100.00
54042;BME280;41156;51.508;5.406;2023-10-19T11:47:05;98989.94;;;17.59;100.00
54042;BME280;41156;51.508;5.406;2023-10-19T11:50:06;98985.19;;;17.51;100.00
54042;BME280;41156;51.508;5.406;2023-10-19T11:53:06;98990.25;;;17.44;100.00
54042;BME280;41156;51.508;5.406;2023-10-19T11:56:12;98988.16;;;17.41;100.00
54042;BME280;41156;51.508;5.406;2023-10-19T11:59:13;98989.06;;;17.36;100.00
54042;BME280;41156;51.508;5.406;2023-10-19T12:02:13;98993.59;;;17.27;100.00
54042;BME280;41156;51.508;5.406;2023-10-19T12:05:18;98995.94;;;17.19;100.00
54042;BME280;41156;51.508;5.406;2023-10-19T12:08:19;98981.78;;;17.17;100.00
54042;BME280;41156;51.508;5.406;2023-10-19T12:11:19;98986.44;;;17.17;100.00
54042;BME280;41156;51.508;5.406;2023-10-19T12:14:22;98983.72;;;17.17;100.00
54042;BME280;41156;51.508;5.406;2023-10-19T12:17:23;98985.31;;;17.18;100.00
54042;BME280;41156;51.508;5.406;2023-10-19T12:20:26;98973.09;;;17.15;100.00
54042;BME280;41156;51.508;5.406;2023-10-19T12:23:26;98974.50;;;17.13;100.00
54042;BME280;41156;51.508;5.406;2023-10-19T12:26:27;98979.97;;;17.13;100.00
54042;BME280;41156;51.508;5.406;2023-10-19T12:29:27;98976.13;;;17.14;100.00
54042;BME280;41156;51.508;5.406;2023-10-19T12:32:28;98981.78;;;17.17;100.00
54042;BME280;41156;51.508;5.406;2023-10-19T12:35:28;98981.00;;;17.17;100.00
54042;BME280;41156;51.508;5.406;2023-10-19T12:38:47;98967.84;;;17.19;100.00
54042;BME280;41156;51.508;5.406;2023-10-19T12:41:47;98977.13;;;17.18;100.00
54042;BME280;41156;51.508;5.406;2023-10-19T12:44:47;98969.97;;;17.08;100.00
54042;BME280;41156;51.508;5.406;2023-10-19T12:47:48;98963.81;;;17.02;100.00
54042;BME280;41156;51.508;5.406;2023-10-19T12:50:48;98961.19;;;16.97;100.00
54042;BME280;41156;51.508;5.406;2023-10-19T12:53:52;98951.38;;;16.96;100.00
54042;BME280;41156;51.508;5.406;2023-10-19T12:56:53;98948.03;;;16.99;100.00
54042;BME280;41156;51.508;5.406;2023-10-19T12:59:53;98942.47;;;17.05;100.00
54042;BME280;41156;51.508;5.406;2023-10-19T13:02:54;98936.41;;;17.08;100.00
54042;BME280;41156;51.508;5.406;2023-10-19T13:06:00;98935.50;;;17.12;100.00
54042;BME280;41156;51.508;5.406;2023-10-19T13:09:05;98928.63;;;17.15;100.00
54042;BME280;41156;51.508;5.406;2023-10-19T13:12:05;98934.91;;;17.15;100.00
54042;BME280;41156;51.508;5.406;2023-10-19T13:15:08;98932.16;;;17.15;100.00
54042;BME280;41156;51.508;5.406;2023-10-19T13:18:13;98934.06;;;17.15;100.00
54042;BME280;41156;51.508;5.406;2023-10-19T13:21:16;98933.09;;;17.11;100.00
54042;BME280;41156;51.508;5.406;2023-10-19T13:24:18;98930.97;;;17.08;100.00
54042;BME280;41156;51.508;5.406;2023-10-19T13:27:20;98927.53;;;17.02;100.00
54042;BME280;41156;51.508;5.406;2023-10-19T13:30:21;98932.28;;;16.96;100.00
54042;BME280;41156;51.508;5.406;2023-10-19T13:33:23;98926.63;;;16.93;100.00
54042;BME280;41156;51.508;5.406;2023-10-19T13:36:28;98926.91;;;16.91;100.00
54042;BME280;41156;51.508;5.406;2023-10-19T13:39:29;98923.09;;;16.92;100.00
54042;BME280;41156;51.508;5.406;2023-10-19T13:42:30;98920.97;;;16.89;100.00
54042;BME280;41156;51.508;5.406;2023-10-19T13:45:34;98918.03;;;16.86;100.00
54042;BME280;41156;51.508;5.406;2023-10-19T13:48:35;98918.91;;;16.81;100.00
54042;BME280;41156;51.508;5.406;2023-10-19T13:51:37;98914.88;;;16.78;100.00
54042;BME280;41156;51.508;5.406;2023-10-19T13:54:39;98923.69;;;16.75;100.00
54042;BME280;41156;51.508;5.406;2023-10-19T13:57:39;98917.69;;;16.73;100.00
54042;BME280;41156;51.508;5.406;2023-10-19T14:00:43;98901.63;;;16.72;100.00
54042;BME280;41156;51.508;5.406;2023-10-19T14:03:44;98893.16;;;16.73;100.00
54042;BME280;41156;51.508;5.406;2023-10-19T14:06:44;98887.19;;;16.71;100.00
54042;BME280;41156;51.508;5.406;2023-10-19T14:09:49;98881.25;;;16.69;100.00
54042;BME280;41156;51.508;5.406;2023-10-19T14:12:49;98867.41;;;16.65;100.00
54042;BME280;41156;51.508;5.406;2023-10-19T14:15:49;98859.00;;;16.62;100.00
54042;BME280;41156;51.508;5.406;2023-10-19T14:18:50;98842.16;;;16.60;100.00
54042;BME280;41156;51.508;5.406;2023-10-19T14:21:50;98829.41;;;16.55;100.00
54042;BME280;41156;51.508;5.406;2023-10-19T14:24:51;98823.47;;;16.53;100.00
54042;BME280;41156;51.508;5.406;2023-10-19T14:27:54;98810.44;;;16.50;100.00
54042;BME280;41156;51.508;5.406;2023-10-19T14:30:57;98809.44;;;16.46;100.00
54042;BME280;41156;51.508;5.406;2023-10-19T14:33:57;98810.53;;;16.45;100.00
54042;BME280;41156;51.508;5.406;2023-10-19T14:36:58;98816.00;;;16.45;100.00
54042;BME280;41156;51.508;5.406;2023-10-19T14:39:58;98817.31;;;16.48;100.00
54042;BME280;41156;51.508;5.406;2023-10-19T14:42:59;98819.34;;;16.56;100.00
54042;BME280;41156;51.508;5.406;2023-10-19T14:45:59;98826.22;;;16.67;100.00
54042;BME280;41156;51.508;5.406;2023-10-19T14:49:00;98815.88;;;16.78;100.00
54042;BME280;41156;51.508;5.406;2023-10-19T14:52:00;98802.94;;;16.83;100.00
54042;BME280;41156;51.508;5.406;2023-10-19T14:55:00;98800.53;;;16.82;100.00
54042;BME280;41156;51.508;5.406;2023-10-19T14:58:01;98808.19;;;16.80;100.00
54042;BME280;41156;51.508;5.406;2023-10-19T15:01:21;98806.19;;;16.72;100.00
54042;BME280;41156;51.508;5.406;2023-10-19T15:04:36;98802.78;;;16.66;100.00
54042;BME280;41156;51.508;5.406;2023-10-19T15:07:44;98804.16;;;16.63;100.00
54042;BME280;41156;51.508;5.406;2023-10-19T15:10:48;98802.38;;;16.59;100.00
54042;BME280;41156;51.508;5.406;2023-10-19T15:13:52;98798.81;;;16.58;100.00
54042;BME280;41156;51.508;5.406;2023-10-19T15:16:58;98795.31;;;16.58;100.00
54042;BME280;41156;51.508;5.406;2023-10-19T15:20:02;98795.09;;;16.54;100.00
54042;BME280;41156;51.508;5.406;2023-10-19T15:23:10;98783.19;;;16.50;100.00
54042;BME280;41156;51.508;5.406;2023-10-19T15:26:17;98775.53;;;16.52;100.00
54042;BME280;41156;51.508;5.406;2023-10-19T15:29:26;98776.03;;;16.54;100.00
54042;BME280;41156;51.508;5.406;2023-10-19T15:32:30;98773.78;;;16.56;100.00
54042;BME280;41156;51.508;5.406;2023-10-19T15:35:34;98763.38;;;16.58;100.00
54042;BME280;41156;51.508;5.406;2023-10-19T15:38:46;98767.44;;;16.61;100.00
54042;BME280;41156;51.508;5.406;2023-10-19T15:41:49;98758.13;;;16.62;100.00
54042;BME280;41156;51.508;5.406;2023-10-19T15:44:50;98763.38;;;16.58;100.00
54042;BME280;41156;51.508;5.406;2023-10-19T15:47:54;98743.81;;;16.56;100.00
54042;BME280;41156;51.508;5.406;2023-10-19T15:50:55;98743.63;;;16.53;100.00
54042;BME280;41156;51.508;5.406;2023-10-19T15:53:55;98745.66;;;16.47;100.00
54042;BME280;41156;51.508;5.406;2023-10-19T15:56:55;98748.47;;;16.42;100.00
54042;BME280;41156;51.508;5.406;2023-10-19T15:59:56;98746.97;;;16.36;100.00
54042;BME280;41156;51.508;5.406;2023-10-19T16:02:56;98747.06;;;16.31;100.00
54042;BME280;41156;51.508;5.406;2023-10-19T16:05:56;98742.22;;;16.27;100.00